Ashburn, Georgia
Current Conditions -  °F | °C
As of 12:55 PM on Friday 28 Nov 2014 (Local Time) from KCKF Reporting Station
Clear Clear  
Wind Chill: 46°   Ceiling: Unl
Heat Index: 48°   Visibility: 10mi
Dew Point: 24°   Wind: 5mph
Humidity: 39%   Direction: 40°NE
Pressure: 30.37"   Gusts: NA
Location:  31.71°N, 83.65°W
Report Text: KCKF 281755Z AUTO 04004KT 10SM CLR 09/M04 A3037 RMK AO2 T00901043 10090 20008
Loading
Personal Weather Stations






























Interactive Weather Map New forecast layout! Learn more

10-Day Weather Forecast

Advertisements
Track Severe Weather on mobile